createdAt,value
2022-11-13T00:01:38.721Z,42.28
2022-11-13T00:04:24.563Z,42.13
2022-11-13T00:07:10.432Z,42.06
2022-11-13T00:09:56.146Z,42.25
2022-11-13T00:12:41.952Z,42.10
2022-11-13T00:15:27.501Z,42.15
2022-11-13T00:18:13.356Z,42.04
2022-11-13T00:21:04.214Z,42.08
2022-11-13T00:23:50.364Z,42.24
2022-11-13T00:26:36.259Z,42.41
2022-11-13T00:29:21.869Z,42.42
2022-11-13T00:32:07.450Z,42.59
2022-11-13T00:34:53.211Z,42.36
2022-11-13T00:37:38.799Z,42.28
2022-11-13T00:40:24.574Z,42.25
2022-11-13T00:43:10.356Z,42.42
2022-11-13T00:45:56.164Z,42.30
2022-11-13T00:48:41.969Z,42.37
2022-11-13T00:51:27.781Z,42.21
2022-11-13T00:54:13.378Z,42.07
2022-11-13T00:56:59.237Z,42.13
2022-11-13T00:59:49.340Z,41.97
2022-11-13T01:02:35.113Z,42.05
2022-11-13T01:05:21.108Z,41.89
2022-11-13T01:08:09.549Z,41.91
2022-11-13T01:10:55.780Z,42.34
2022-11-13T01:13:42.027Z,42.26
2022-11-13T01:16:28.157Z,42.06
2022-11-13T01:19:13.688Z,42.50
2022-11-13T01:21:59.427Z,42.54
2022-11-13T01:24:45.152Z,42.37
2022-11-13T01:27:30.839Z,42.62
2022-11-13T01:30:16.964Z,42.63
2022-11-13T01:33:02.626Z,42.23
2022-11-13T01:35:48.444Z,42.80
2022-11-13T01:38:36.684Z,42.82
2022-11-13T01:41:25.670Z,42.75
2022-11-13T01:44:11.554Z,42.50
2022-11-13T01:46:57.216Z,43.02
2022-11-13T01:49:42.785Z,42.86
2022-11-13T01:52:29.240Z,42.73
2022-11-13T01:55:15.821Z,42.06
2022-11-13T01:58:01.354Z,42.48
2022-11-13T02:00:47.186Z,42.54
2022-11-13T02:03:33.014Z,42.67
2022-11-13T02:06:19.386Z,42.30
2022-11-13T02:09:05.169Z,42.53
2022-11-13T02:11:50.538Z,42.33
2022-11-13T02:14:36.166Z,42.14
2022-11-13T02:17:23.340Z,42.18
2022-11-13T02:20:09.122Z,41.98
2022-11-13T02:22:54.643Z,41.86
2022-11-13T02:25:40.316Z,41.85
2022-11-13T02:28:26.485Z,41.69
2022-11-13T02:31:13.129Z,41.44
2022-11-13T02:33:58.810Z,41.18
2022-11-13T02:36:44.391Z,41.37
2022-11-13T02:39:30.066Z,41.50
2022-11-13T02:42:15.903Z,41.84
2022-11-13T02:45:01.891Z,42.02
2022-11-13T02:47:47.524Z,42.05
2022-11-13T02:50:34.111Z,42.06
2022-11-13T02:53:19.755Z,42.02
2022-11-13T02:56:05.729Z,42.02
2022-11-13T02:58:51.400Z,42.08
2022-11-13T03:01:36.993Z,41.76
2022-11-13T03:04:22.731Z,42.10
2022-11-13T03:07:08.734Z,42.39
2022-11-13T03:09:54.327Z,42.41
2022-11-13T03:12:40.764Z,42.54
2022-11-13T03:15:26.479Z,43.38
2022-11-13T03:18:12.522Z,43.86
2022-11-13T03:20:58.332Z,43.59
2022-11-13T03:23:47.143Z,44.55
2022-11-13T03:26:33.033Z,44.19
2022-11-13T03:29:18.515Z,43.85
2022-11-13T03:32:04.053Z,44.04
2022-11-13T03:34:49.830Z,43.39
2022-11-13T03:37:35.709Z,43.41
2022-11-13T03:40:21.358Z,43.08
2022-11-13T03:43:07.154Z,42.67
2022-11-13T03:45:53.005Z,42.78
2022-11-13T03:48:38.771Z,43.19
2022-11-13T03:51:24.623Z,43.50
2022-11-13T03:54:10.124Z,43.31
2022-11-13T03:56:56.002Z,42.85
2022-11-13T03:59:41.282Z,43.47
2022-11-13T04:02:27.119Z,43.38
2022-11-13T04:05:13.012Z,43.17
2022-11-13T04:07:58.675Z,42.98
2022-11-13T04:10:44.740Z,42.92
2022-11-13T04:13:30.340Z,42.85
2022-11-13T04:16:15.986Z,42.78
2022-11-13T04:19:01.762Z,42.39
2022-11-13T04:21:47.403Z,42.21
2022-11-13T04:24:33.187Z,42.59
2022-11-13T04:27:18.767Z,43.24
2022-11-13T04:30:04.627Z,42.07
2022-11-13T04:32:50.507Z,42.96
2022-11-13T04:35:35.900Z,45.05
2022-11-13T04:38:21.676Z,44.87
2022-11-13T04:41:26.391Z,45.25
2022-11-13T04:44:11.800Z,43.52
2022-11-13T04:46:57.452Z,43.21
2022-11-13T04:49:43.312Z,43.28
2022-11-13T04:52:29.045Z,43.48
2022-11-13T04:55:15.036Z,43.21
2022-11-13T04:58:00.429Z,43.26
2022-11-13T05:00:45.963Z,42.86
2022-11-13T05:03:31.855Z,43.01
2022-11-13T05:06:17.883Z,43.44
2022-11-13T05:09:03.633Z,42.99
2022-11-13T05:11:49.340Z,42.59
2022-11-13T05:14:35.934Z,42.42
2022-11-13T05:17:23.235Z,42.29
2022-11-13T05:20:09.223Z,42.00
2022-11-13T05:22:54.715Z,41.98
2022-11-13T05:25:40.506Z,42.40
2022-11-13T05:28:26.721Z,42.55
2022-11-13T05:31:13.177Z,42.71
2022-11-13T05:34:04.197Z,42.62
2022-11-13T05:36:51.640Z,42.08
2022-11-13T05:39:37.383Z,42.61
2022-11-13T05:42:23.055Z,42.67
2022-11-13T05:45:09.029Z,42.24
2022-11-13T05:47:54.496Z,42.21
2022-11-13T05:50:40.341Z,42.24
2022-11-13T05:53:25.965Z,42.05
2022-11-13T05:56:12.662Z,42.46
2022-11-13T05:58:58.966Z,42.25
2022-11-13T06:01:44.795Z,42.08
2022-11-13T06:04:30.488Z,42.06
2022-11-13T06:07:16.198Z,42.03
2022-11-13T06:10:01.939Z,42.30
2022-11-13T06:12:47.763Z,42.33
2022-11-13T06:15:33.423Z,42.41
2022-11-13T06:18:26.735Z,42.59
2022-11-13T06:21:13.690Z,42.56
2022-11-13T06:24:00.095Z,42.84
2022-11-13T06:26:45.742Z,42.93
2022-11-13T06:29:31.446Z,43.11
2022-11-13T06:32:16.987Z,43.25
2022-11-13T06:35:02.706Z,43.67
2022-11-13T06:37:48.531Z,43.48
2022-11-13T06:40:34.193Z,43.57
2022-11-13T06:43:19.817Z,43.90
2022-11-13T06:46:06.315Z,43.12
2022-11-13T06:48:51.757Z,43.23
2022-11-13T06:51:37.386Z,43.34
2022-11-13T06:54:22.962Z,42.96
2022-11-13T06:57:08.672Z,43.20
2022-11-13T06:59:54.652Z,43.43
2022-11-13T07:02:40.524Z,47.02
2022-11-13T07:05:26.295Z,47.29
2022-11-13T07:08:12.483Z,48.04
2022-11-13T07:10:58.205Z,45.42
2022-11-13T07:13:44.088Z,45.44
2022-11-13T07:16:39.044Z,44.76
2022-11-13T07:19:35.425Z,44.65
2022-11-13T07:22:21.215Z,44.96
2022-11-13T07:25:07.209Z,44.87
2022-11-13T07:27:53.046Z,45.61
2022-11-13T07:30:38.838Z,45.42
2022-11-13T07:33:24.764Z,45.91
2022-11-13T07:36:10.426Z,46.99
2022-11-13T07:39:00.116Z,49.90
2022-11-13T07:41:47.030Z,48.58
2022-11-13T07:44:53.423Z,49.67
2022-11-13T07:47:38.638Z,46.75
2022-11-13T07:50:24.066Z,47.08
2022-11-13T07:53:10.281Z,46.48
2022-11-13T07:55:56.056Z,47.13
2022-11-13T07:58:41.511Z,46.88
2022-11-13T08:01:27.276Z,46.32
2022-11-13T08:04:12.986Z,46.65
2022-11-13T08:06:58.781Z,46.03
2022-11-13T08:09:44.395Z,48.72
2022-11-13T08:12:30.098Z,47.43
2022-11-13T08:15:15.917Z,49.41
2022-11-13T08:18:02.512Z,49.12
2022-11-13T08:20:47.886Z,48.34
2022-11-13T08:23:33.635Z,48.53
2022-11-13T08:26:19.520Z,50.07
2022-11-13T08:29:04.828Z,49.89
2022-11-13T08:31:50.675Z,50.63
2022-11-13T08:34:37.311Z,54.10
2022-11-13T08:37:23.044Z,55.06
2022-11-13T08:40:09.161Z,50.53
2022-11-13T08:42:59.170Z,51.05
2022-11-13T08:45:45.649Z,50.33
2022-11-13T08:48:31.733Z,49.23
2022-11-13T08:51:18.375Z,48.73
2022-11-13T08:54:04.370Z,48.79
2022-11-13T08:56:54.655Z,50.74
2022-11-13T08:59:42.424Z,49.96
2022-11-13T09:02:28.091Z,48.98
2022-11-13T09:05:14.296Z,49.09
2022-11-13T09:08:00.335Z,48.48
2022-11-13T09:10:46.005Z,50.47
2022-11-13T09:13:33.220Z,48.19
2022-11-13T09:16:18.883Z,47.54
2022-11-13T09:19:04.598Z,47.31
2022-11-13T09:21:50.936Z,47.29
2022-11-13T09:24:36.816Z,47.41
2022-11-13T09:27:22.591Z,48.88
2022-11-13T09:30:08.471Z,48.93
2022-11-13T09:32:54.707Z,47.51
2022-11-13T09:35:40.327Z,47.84
2022-11-13T09:38:25.971Z,48.44
2022-11-13T09:41:13.234Z,48.20
2022-11-13T09:44:00.366Z,48.82
2022-11-13T09:46:47.681Z,49.41
2022-11-13T09:49:33.601Z,49.26
2022-11-13T09:52:21.672Z,49.41
2022-11-13T09:55:09.773Z,48.68
2022-11-13T09:58:12.752Z,49.18
2022-11-13T10:00:58.579Z,52.65
2022-11-13T10:04:00.751Z,50.87
2022-11-13T10:06:50.715Z,51.41
2022-11-13T10:09:55.409Z,51.69
2022-11-13T10:12:40.954Z,52.80
2022-11-13T10:15:27.016Z,51.12
2022-11-13T10:18:12.666Z,51.01
2022-11-13T10:21:05.543Z,50.57
2022-11-13T10:23:56.239Z,50.57
2022-11-13T10:26:42.039Z,49.13
2022-11-13T10:29:28.661Z,49.51
2022-11-13T10:32:24.651Z,48.76
2022-11-13T10:35:30.223Z,50.18
2022-11-13T10:38:39.022Z,49.42
2022-11-13T10:41:24.436Z,49.03
2022-11-13T10:44:23.144Z,50.37
2022-11-13T10:47:19.701Z,50.58
2022-11-13T10:50:12.869Z,52.90
2022-11-13T10:52:58.435Z,53.14
2022-11-13T10:55:44.113Z,52.10
2022-11-13T10:58:30.189Z,51.00
2022-11-13T11:01:22.840Z,51.48
2022-11-13T11:04:19.992Z,50.84
2022-11-13T11:07:25.901Z,50.04
2022-11-13T11:10:24.230Z,51.65
2022-11-13T11:13:10.602Z,53.01
2022-11-13T11:15:57.965Z,50.74
2022-11-13T11:18:49.792Z,49.68
2022-11-13T11:21:36.406Z,50.24
2022-11-13T11:24:25.837Z,49.77
2022-11-13T11:27:14.392Z,49.16
2022-11-13T11:30:26.738Z,50.69
2022-11-13T11:33:21.430Z,51.33
2022-11-13T11:36:09.019Z,50.68
2022-11-13T11:38:57.786Z,51.22
2022-11-13T11:41:45.071Z,49.73
2022-11-13T11:44:34.111Z,49.40
2022-11-13T11:47:19.533Z,49.02
2022-11-13T11:50:05.748Z,48.20
2022-11-13T11:52:56.901Z,46.50
2022-11-13T11:55:55.294Z,46.15
2022-11-13T11:58:59.906Z,46.96
2022-11-13T12:02:08.083Z,47.33
2022-11-13T12:05:03.399Z,46.46
2022-11-13T12:07:52.506Z,46.01
2022-11-13T12:10:40.964Z,46.70
2022-11-13T12:13:33.129Z,46.74
2022-11-13T12:16:30.296Z,45.62
2022-11-13T12:19:26.923Z,47.33
2022-11-13T12:22:30.608Z,46.32
2022-11-13T12:25:35.572Z,46.14
2022-11-13T12:28:22.070Z,47.16
2022-11-13T12:31:14.943Z,47.49
2022-11-13T12:34:06.865Z,49.53
2022-11-13T12:36:52.347Z,50.33
2022-11-13T12:39:40.676Z,48.64
2022-11-13T12:42:39.061Z,48.75
2022-11-13T12:45:45.168Z,48.46
2022-11-13T12:48:33.869Z,47.32
2022-11-13T12:51:19.401Z,47.42
2022-11-13T12:54:05.364Z,48.03
2022-11-13T12:56:51.254Z,46.35
2022-11-13T12:59:37.310Z,46.90
2022-11-13T13:02:41.563Z,48.27
2022-11-13T13:05:38.971Z,47.12
2022-11-13T13:08:31.845Z,47.14
2022-11-13T13:11:21.008Z,46.62
2022-11-13T13:14:16.028Z,45.55
2022-11-13T13:17:05.525Z,46.45
2022-11-13T13:19:58.798Z,46.34
2022-11-13T13:22:54.461Z,46.41
2022-11-13T13:25:40.316Z,46.83
2022-11-13T13:28:25.969Z,46.56
2022-11-13T13:31:15.495Z,45.77
2022-11-13T13:34:21.927Z,46.36
2022-11-13T13:37:17.062Z,45.68
2022-11-13T13:40:15.510Z,46.12
2022-11-13T13:43:15.393Z,45.88
2022-11-13T13:46:06.935Z,45.28
2022-11-13T13:48:53.970Z,45.10
2022-11-13T13:51:43.628Z,47.71
2022-11-13T13:54:29.766Z,47.31
2022-11-13T13:57:16.184Z,47.52
2022-11-13T14:00:02.184Z,45.02
2022-11-13T14:02:49.048Z,46.44
2022-11-13T14:05:35.389Z,47.31
2022-11-13T14:08:22.214Z,48.10
2022-11-13T14:11:27.192Z,45.70
2022-11-13T14:14:18.057Z,47.16
2022-11-13T14:17:03.938Z,45.91
2022-11-13T14:19:52.675Z,46.11
2022-11-13T14:22:38.536Z,44.83
2022-11-13T14:25:25.481Z,45.34
2022-11-13T14:28:15.327Z,45.14
2022-11-13T14:31:02.469Z,44.79
2022-11-13T14:33:49.164Z,44.40
2022-11-13T14:36:35.040Z,44.06
2022-11-13T14:39:22.703Z,45.01
2022-11-13T14:42:14.111Z,45.56
2022-11-13T14:45:16.522Z,44.60
2022-11-13T14:48:03.191Z,44.69
2022-11-13T14:50:53.270Z,44.71
2022-11-13T14:53:40.135Z,44.05
2022-11-13T14:56:33.094Z,44.91
2022-11-13T14:59:25.874Z,44.83
2022-11-13T15:02:12.535Z,44.12
2022-11-13T15:04:58.592Z,45.08
2022-11-13T15:07:46.026Z,45.03
2022-11-13T15:10:31.952Z,44.67
2022-11-13T15:13:17.989Z,45.04
2022-11-13T15:16:04.624Z,45.72
2022-11-13T15:18:51.954Z,44.67
2022-11-13T15:21:38.176Z,46.80
2022-11-13T15:24:24.511Z,46.37
2022-11-13T15:27:15.638Z,46.15
2022-11-13T15:30:01.651Z,46.13
2022-11-13T15:32:53.584Z,45.33
2022-11-13T15:35:39.491Z,45.54
2022-11-13T15:38:25.102Z,45.15
2022-11-13T15:41:15.878Z,44.43
2022-11-13T15:44:02.191Z,44.32
2022-11-13T15:46:48.744Z,44.88
2022-11-13T15:49:34.777Z,45.83
2022-11-13T15:52:20.887Z,45.05
2022-11-13T15:55:13.120Z,44.64
2022-11-13T15:57:58.687Z,44.85
2022-11-13T16:00:46.034Z,44.60
2022-11-13T16:03:34.490Z,44.93
2022-11-13T16:06:21.097Z,45.71
2022-11-13T16:09:09.567Z,44.77
2022-11-13T16:11:56.258Z,44.48
2022-11-13T16:14:41.812Z,44.85
2022-11-13T16:17:27.749Z,45.39
2022-11-13T16:20:16.667Z,47.09
2022-11-13T16:23:02.670Z,46.79
2022-11-13T16:25:48.162Z,46.60
2022-11-13T16:28:41.917Z,48.83
2022-11-13T16:31:39.831Z,49.64
2022-11-13T16:34:25.872Z,49.40
2022-11-13T16:37:15.943Z,49.62
2022-11-13T16:40:01.733Z,50.44
2022-11-13T16:42:47.932Z,50.65
2022-11-13T16:45:34.074Z,49.88
2022-11-13T16:48:20.126Z,52.33
2022-11-13T16:51:07.414Z,53.48
2022-11-13T16:53:53.293Z,51.50
2022-11-13T16:56:40.464Z,50.98
2022-11-13T16:59:26.786Z,52.10
2022-11-13T17:02:14.136Z,53.69
2022-11-13T17:05:00.414Z,52.44
2022-11-13T17:07:46.546Z,53.10
2022-11-13T17:10:33.418Z,51.73
2022-11-13T17:13:22.727Z,53.04
2022-11-13T17:16:09.108Z,53.26
2022-11-13T17:18:55.460Z,52.53
2022-11-13T17:21:44.366Z,53.13
2022-11-13T17:24:31.203Z,54.19
2022-11-13T17:27:19.020Z,53.89
2022-11-13T17:30:05.816Z,55.73
2022-11-13T17:32:51.843Z,54.60
2022-11-13T17:35:38.119Z,56.11
2022-11-13T17:38:24.915Z,56.13
2022-11-13T17:41:13.061Z,53.70
2022-11-13T17:44:01.366Z,55.54
2022-11-13T17:46:48.341Z,56.60
2022-11-13T17:49:34.148Z,54.25
2022-11-13T17:52:19.900Z,52.87
2022-11-13T17:55:07.907Z,55.95
2022-11-13T17:57:53.557Z,57.06
2022-11-13T18:00:39.707Z,56.79
2022-11-13T18:03:26.749Z,57.04
2022-11-13T18:06:18.233Z,55.88
2022-11-13T18:09:05.244Z,54.91
2022-11-13T18:11:51.929Z,57.33
2022-11-13T18:14:38.756Z,54.89
2022-11-13T18:17:25.079Z,54.42
2022-11-13T18:20:12.127Z,53.34
2022-11-13T18:22:59.182Z,53.07
2022-11-13T18:25:45.649Z,52.91
2022-11-13T18:28:32.089Z,55.37
2022-11-13T18:31:22.519Z,54.94
2022-11-13T18:34:13.009Z,55.47
2022-11-13T18:37:00.003Z,57.66
2022-11-13T18:39:46.462Z,56.74
2022-11-13T18:42:32.919Z,56.10
2022-11-13T18:45:19.302Z,57.34
2022-11-13T18:48:05.824Z,57.38
2022-11-13T18:50:56.310Z,56.03
2022-11-13T18:53:46.540Z,55.07
2022-11-13T18:56:35.903Z,54.04
2022-11-13T18:59:22.466Z,54.74
2022-11-13T19:02:09.701Z,53.61
2022-11-13T19:04:55.951Z,55.20
2022-11-13T19:07:41.995Z,55.09
2022-11-13T19:10:28.554Z,52.40
2022-11-13T19:13:15.760Z,50.70
2022-11-13T19:16:09.270Z,52.05
2022-11-13T19:18:56.989Z,53.25
2022-11-13T19:21:43.308Z,53.15
2022-11-13T19:24:30.604Z,52.46
2022-11-13T19:27:16.881Z,52.61
2022-11-13T19:30:03.409Z,53.68
2022-11-13T19:32:50.998Z,54.54
2022-11-13T19:35:37.401Z,53.20
2022-11-13T19:38:24.141Z,53.20
2022-11-13T19:41:13.778Z,52.17
2022-11-13T19:44:01.683Z,52.15
2022-11-13T19:46:48.388Z,51.03
2022-11-13T19:49:35.295Z,50.97
2022-11-13T19:52:22.519Z,50.09
2022-11-13T19:55:12.803Z,50.98
2022-11-13T19:58:02.192Z,49.08
2022-11-13T20:00:48.935Z,49.59
2022-11-13T20:03:35.080Z,49.27
2022-11-13T20:06:21.468Z,48.61
2022-11-13T20:09:07.318Z,50.66
2022-11-13T20:11:53.232Z,52.61
2022-11-13T20:14:39.416Z,54.07
2022-11-13T20:17:28.154Z,50.75
2022-11-13T20:20:14.722Z,50.65
2022-11-13T20:23:00.808Z,50.26
2022-11-13T20:25:54.307Z,52.51
2022-11-13T20:28:40.328Z,50.24
2022-11-13T20:31:28.506Z,49.67
2022-11-13T20:34:15.191Z,49.02
2022-11-13T20:37:01.769Z,48.19
2022-11-13T20:39:48.416Z,47.20
2022-11-13T20:42:34.199Z,47.35
2022-11-13T20:45:21.927Z,46.50
2022-11-13T20:48:09.031Z,46.04
2022-11-13T20:50:55.116Z,45.79
2022-11-13T20:53:41.314Z,45.18
2022-11-13T20:56:27.308Z,44.67
2022-11-13T20:59:14.890Z,43.89
2022-11-13T21:02:01.240Z,45.62
2022-11-13T21:04:47.525Z,46.06
2022-11-13T21:07:33.510Z,44.53
2022-11-13T21:10:19.375Z,44.34
2022-11-13T21:13:05.240Z,44.22
2022-11-13T21:15:53.012Z,44.14
2022-11-13T21:18:38.502Z,43.44
2022-11-13T21:21:26.686Z,43.57
2022-11-13T21:24:12.605Z,43.35
2022-11-13T21:26:58.437Z,43.80
2022-11-13T21:29:44.386Z,43.32
2022-11-13T21:32:30.763Z,44.30
2022-11-13T21:35:22.348Z,43.85
2022-11-13T21:38:08.679Z,45.61
2022-11-13T21:41:20.372Z,44.33
2022-11-13T21:44:08.082Z,44.53
2022-11-13T21:46:54.139Z,45.21
2022-11-13T21:49:39.556Z,45.45
2022-11-13T21:52:25.321Z,45.46
2022-11-13T21:55:11.249Z,46.33
2022-11-13T21:57:56.931Z,47.56
2022-11-13T22:00:42.761Z,50.55
2022-11-13T22:03:28.655Z,48.06
2022-11-13T22:06:24.270Z,48.25
2022-11-13T22:09:13.347Z,48.19
2022-11-13T22:11:58.893Z,47.07
2022-11-13T22:14:44.519Z,46.22
2022-11-13T22:17:30.191Z,46.10
2022-11-13T22:20:16.162Z,46.31
2022-11-13T22:23:04.669Z,46.23
2022-11-13T22:25:52.418Z,46.15
2022-11-13T22:28:40.653Z,46.21
2022-11-13T22:31:27.208Z,46.40
2022-11-13T22:34:12.974Z,46.16
2022-11-13T22:36:58.730Z,46.57
2022-11-13T22:39:44.697Z,46.36
2022-11-13T22:42:30.436Z,45.77
2022-11-13T22:45:23.783Z,48.80
2022-11-13T22:48:10.147Z,47.33
2022-11-13T22:50:55.968Z,49.17
2022-11-13T22:53:41.934Z,48.47
2022-11-13T22:56:28.578Z,48.26
2022-11-13T22:59:14.418Z,49.50
2022-11-13T23:01:59.965Z,47.74
2022-11-13T23:04:45.858Z,47.88
2022-11-13T23:07:31.818Z,48.10
2022-11-13T23:10:17.605Z,48.36
2022-11-13T23:13:03.061Z,47.59
2022-11-13T23:15:48.693Z,48.36
2022-11-13T23:18:34.547Z,49.03
2022-11-13T23:21:20.193Z,49.03
2022-11-13T23:24:06.145Z,47.56
2022-11-13T23:26:51.611Z,47.56
2022-11-13T23:29:37.288Z,47.19
2022-11-13T23:32:23.574Z,47.05
2022-11-13T23:35:09.522Z,47.48
2022-11-13T23:37:55.120Z,47.30
2022-11-13T23:40:41.122Z,48.06
2022-11-13T23:43:41.692Z,47.31
2022-11-13T23:46:32.740Z,46.47
2022-11-13T23:49:18.309Z,48.37
2022-11-13T23:52:03.959Z,47.54
2022-11-13T23:54:49.731Z,46.83
2022-11-13T23:57:35.500Z,46.23
